Time;durP1;ratioP1;P1;durP2;ratioP2;P2;SDS_P1;SDS_P2;PMS_P1;PMS_P2;Temp;Humidity;BMP_temperature;BMP_pressure;BME280_temperature;BME280_humidity;BME280_pressure;Samples;Min_cycle;Max_cycle;Signal;HPM_P1;HPM_P2
2024/03/19 00:01:01;;;;;;;31.67;14.90;;;;;;;9.71;100.00;101707.72;5269153;28;20027;-76
2024/03/19 00:03:32;;;;;;;29.38;14.13;;;;;;;9.74;100.00;101701.22;5264285;28;20038;-74
2024/03/19 00:06:03;;;;;;;25.52;13.75;;;;;;;9.78;100.00;101699.97;5275688;28;20024;-75
2024/03/19 00:08:33;;;;;;;35.17;14.77;;;;;;;9.83;100.00;101705.75;5268807;28;20062;-75
2024/03/19 00:11:04;;;;;;;25.23;12.95;;;;;;;9.86;100.00;101705.47;5270165;28;20543;-76
2024/03/19 00:13:34;;;;;;;25.33;13.05;;;;;;;9.89;100.00;101702.53;5272295;28;20024;-75
2024/03/19 00:16:05;;;;;;;24.80;12.82;;;;;;;9.93;100.00;101708.44;5274563;28;20487;-75
2024/03/19 00:18:36;;;;;;;23.85;12.50;;;;;;;9.96;100.00;101706.31;5276376;28;20111;-75
2024/03/19 00:21:07;;;;;;;23.40;12.10;;;;;;;9.97;100.00;101712.53;5264623;28;20027;-75
2024/03/19 00:23:38;;;;;;;24.48;11.63;;;;;;;10.01;100.00;101713.94;5280942;28;20058;-74
2024/03/19 00:26:08;;;;;;;22.88;11.23;;;;;;;10.06;100.00;101717.88;5280808;28;20492;-75
2024/03/19 00:28:39;;;;;;;21.08;10.07;;;;;;;10.12;100.00;101705.75;5274709;28;20535;-74
2024/03/19 00:31:10;;;;;;;21.60;10.88;;;;;;;10.16;100.00;101722.41;5277938;28;20044;-75
2024/03/19 00:33:41;;;;;;;22.60;10.52;;;;;;;10.17;100.00;101710.69;5274238;28;20024;-75
2024/03/19 00:36:12;;;;;;;19.58;10.43;;;;;;;10.21;100.00;101717.47;5275290;27;20034;-75
2024/03/19 00:38:43;;;;;;;22.10;9.45;;;;;;;10.22;100.00;101713.78;5276432;28;20129;-75
2024/03/19 00:41:13;;;;;;;18.98;10.38;;;;;;;10.21;100.00;101720.16;5273014;28;20044;-75
2024/03/19 00:43:43;;;;;;;21.60;10.57;;;;;;;10.18;100.00;101715.06;5276586;28;20027;-75
2024/03/19 00:46:14;;;;;;;22.88;10.80;;;;;;;10.02;100.00;101723.69;5275887;28;20374;-75
2024/03/19 00:48:45;;;;;;;19.17;10.73;;;;;;;10.03;100.00;101712.78;5280074;28;20023;-75
2024/03/19 00:51:16;;;;;;;23.20;11.20;;;;;;;10.06;100.00;101719.72;5274747;27;20488;-75
2024/03/19 00:53:46;;;;;;;22.52;10.63;;;;;;;9.96;100.00;101717.03;5277678;28;20035;-75
2024/03/19 00:56:17;;;;;;;21.15;10.68;;;;;;;10.02;100.00;101710.28;5276953;28;20432;-75
2024/03/19 00:58:47;;;;;;;23.73;10.02;;;;;;;10.12;100.00;101720.00;5277500;27;20024;-75
2024/03/19 01:01:18;;;;;;;24.00;10.35;;;;;;;10.19;100.00;101719.41;5271750;28;20063;-75
2024/03/19 01:03:48;;;;;;;22.42;8.60;;;;;;;10.24;100.00;101709.16;5272495;28;20473;-74
2024/03/19 01:06:19;;;;;;;19.58;6.93;;;;;;;10.39;100.00;101721.13;5274335;28;20031;-73
2024/03/19 01:08:49;;;;;;;17.35;8.05;;;;;;;10.51;100.00;101713.78;5279008;28;20034;-74
2024/03/19 01:11:20;;;;;;;18.00;8.52;;;;;;;10.58;100.00;101714.88;5272823;28;20027;-74
2024/03/19 01:13:50;;;;;;;29.80;9.43;;;;;;;10.59;100.00;101719.25;5274891;28;20032;-73
2024/03/19 01:16:21;;;;;;;17.20;7.30;;;;;;;10.62;100.00;101716.28;5276046;28;20411;-74
2024/03/19 01:18:51;;;;;;;17.90;8.65;;;;;;;10.65;100.00;101723.22;5274006;28;20111;-74
2024/03/19 01:21:22;;;;;;;20.10;7.78;;;;;;;10.63;100.00;101720.66;5274401;28;20182;-73
2024/03/19 01:23:52;;;;;;;25.98;9.13;;;;;;;10.65;100.00;101721.38;5272323;28;20597;-74
2024/03/19 01:26:23;;;;;;;18.00;8.55;;;;;;;10.65;100.00;101717.84;5276196;28;20161;-74
2024/03/19 01:28:55;;;;;;;19.50;8.18;;;;;;;10.70;100.00;101712.88;5271080;28;20035;-74
2024/03/19 01:31:28;;;;;;;19.92;7.78;;;;;;;10.71;100.00;101712.72;5269483;28;20043;-74
2024/03/19 01:33:59;;;;;;;16.40;7.78;;;;;;;10.67;100.00;101713.16;5275469;28;20030;-74
2024/03/19 01:36:29;;;;;;;22.27;7.88;;;;;;;10.68;100.00;101710.31;5269373;28;20480;-74
2024/03/19 01:39:00;;;;;;;15.13;7.95;;;;;;;10.67;100.00;101710.47;5277582;28;20031;-74
2024/03/19 01:41:30;;;;;;;20.85;7.82;;;;;;;10.71;100.00;101717.25;5271527;28;20031;-74
2024/03/19 01:44:01;;;;;;;18.25;8.00;;;;;;;10.70;100.00;101718.25;5275066;28;20030;-74
2024/03/19 01:46:31;;;;;;;21.13;8.77;;;;;;;10.69;100.00;101721.91;5262730;28;20024;-74
2024/03/19 01:49:02;;;;;;;16.70;7.68;;;;;;;10.75;100.00;101715.97;5276986;28;20037;-74
2024/03/19 01:51:34;;;;;;;17.27;7.97;;;;;;;10.78;100.00;101711.13;5272862;28;20038;-73
2024/03/19 01:54:06;;;;;;;19.90;7.60;;;;;;;10.85;100.00;101706.06;5276635;28;20031;-73
2024/03/19 01:56:37;;;;;;;13.55;7.22;;;;;;;10.85;100.00;101711.41;5271061;28;20036;-73
2024/03/19 01:59:08;;;;;;;17.45;7.50;;;;;;;10.86;100.00;101710.41;5266676;28;20024;-74
2024/03/19 02:01:38;;;;;;;15.52;7.05;;;;;;;10.84;100.00;101715.94;5269733;28;20081;-73
2024/03/19 02:04:09;;;;;;;15.23;6.85;;;;;;;10.82;100.00;101712.53;5277044;28;20027;-73
2024/03/19 02:06:40;;;;;;;18.95;7.68;;;;;;;10.80;100.00;101711.84;5271368;28;20049;-73
2024/03/19 02:09:16;;;;;;;19.13;8.88;;;;;;;10.77;100.00;101714.81;5270737;28;20015;-73
2024/03/19 02:12:00;;;;;;;20.85;8.10;;;;;;;10.77;100.00;101700.56;5276772;28;20192;-73
2024/03/19 02:14:34;;;;;;;15.75;7.72;;;;;;;10.76;100.00;101702.41;5272670;28;20020;-72
2024/03/19 02:17:05;;;;;;;15.80;8.13;;;;;;;10.74;100.00;101704.38;5268469;28;20031;-74
2024/03/19 02:19:36;;;;;;;17.27;7.93;;;;;;;10.71;100.00;101703.84;5269624;28;20031;-73
2024/03/19 02:22:09;;;;;;;15.32;7.78;;;;;;;10.70;100.00;101710.19;5267667;28;20028;-74
2024/03/19 02:24:54;;;;;;;22.00;8.15;;;;;;;10.63;100.00;101697.34;5268430;28;20030;-73
2024/03/19 02:27:25;;;;;;;14.70;7.78;;;;;;;10.61;100.00;101698.50;5270180;28;20031;-73
2024/03/19 02:30:05;;;;;;;27.02;7.68;;;;;;;10.59;100.00;101695.97;5266313;28;20127;-73
2024/03/19 02:32:38;;;;;;;17.15;7.60;;;;;;;10.60;100.00;101694.13;5272177;28;20041;-73
2024/03/19 02:35:26;;;;;;;15.13;7.40;;;;;;;10.60;100.00;101697.66;5268707;28;20024;-74
2024/03/19 02:37:56;;;;;;;20.13;7.60;;;;;;;10.61;100.00;101693.13;5272496;28;20087;-74
2024/03/19 02:40:27;;;;;;;21.73;8.02;;;;;;;10.60;100.00;101686.91;5268907;28;20020;-73
2024/03/19 02:42:57;;;;;;;13.82;7.32;;;;;;;10.61;100.00;101683.25;5270404;28;20042;-74
2024/03/19 02:45:28;;;;;;;15.85;7.45;;;;;;;10.63;100.00;101697.34;5278147;28;20020;-73
2024/03/19 02:47:58;;;;;;;14.85;7.90;;;;;;;10.65;100.00;101688.31;5269560;28;20024;-76
2024/03/19 02:50:29;;;;;;;16.42;7.30;;;;;;;10.69;100.00;101681.66;5264773;28;20032;-76
2024/03/19 02:52:59;;;;;;;16.25;6.90;;;;;;;10.75;100.00;101678.41;5275478;28;20027;-73
2024/03/19 02:55:31;;;;;;;17.55;6.85;;;;;;;10.77;100.00;101676.41;5273123;28;20110;-73
2024/03/19 02:58:02;;;;;;;14.45;6.72;;;;;;;10.80;100.00;101676.97;5285496;28;20026;-73
2024/03/19 03:00:32;;;;;;;14.20;6.63;;;;;;;10.80;100.00;101678.81;5269569;28;20506;-73
2024/03/19 03:03:03;;;;;;;15.10;6.07;;;;;;;10.80;100.00;101676.13;5276737;28;20028;-74
2024/03/19 03:05:34;;;;;;;18.48;7.13;;;;;;;10.82;100.00;101674.13;5282739;28;20423;-73
2024/03/19 03:08:05;;;;;;;15.63;6.47;;;;;;;10.81;100.00;101670.59;5278380;28;20031;-76
2024/03/19 03:10:36;;;;;;;17.02;7.40;;;;;;;10.81;100.00;101675.97;5273071;28;20099;-76
2024/03/19 03:13:07;;;;;;;13.65;6.63;;;;;;;10.82;100.00;101674.97;5274214;28;20103;-76
2024/03/19 03:15:38;;;;;;;14.55;6.63;;;;;;;10.81;100.00;101678.66;5275618;28;20020;-73
2024/03/19 03:18:10;;;;;;;15.52;6.75;;;;;;;10.83;100.00;101676.66;5282804;28;20073;-73
2024/03/19 03:20:41;;;;;;;16.08;7.32;;;;;;;10.85;100.00;101681.91;5273848;28;20027;-74
2024/03/19 03:23:13;;;;;;;13.98;6.85;;;;;;;10.84;100.00;101682.88;5278826;28;20034;-74
2024/03/19 03:25:44;;;;;;;14.65;6.35;;;;;;;10.85;100.00;101673.84;5281181;28;20070;-73
2024/03/19 03:28:15;;;;;;;12.15;7.28;;;;;;;10.88;100.00;101678.91;5277594;28;20505;-73
2024/03/19 03:30:46;;;;;;;17.75;7.10;;;;;;;10.89;100.00;101688.63;5275787;28;20531;-73
2024/03/19 03:33:17;;;;;;;16.73;7.13;;;;;;;10.87;100.00;101682.56;5271243;28;20031;-73
2024/03/19 03:35:48;;;;;;;16.67;6.65;;;;;;;10.86;100.00;101686.25;5278152;28;20032;-75
2024/03/19 03:38:18;;;;;;;14.43;6.35;;;;;;;10.84;100.00;101686.41;5275176;27;20020;-73
2024/03/19 03:40:49;;;;;;;14.32;7.10;;;;;;;10.83;100.00;101692.75;5277387;28;20469;-73
2024/03/19 03:43:21;;;;;;;13.27;6.80;;;;;;;10.83;100.00;101689.22;5276076;28;20421;-73
2024/03/19 03:45:51;;;;;;;13.38;6.57;;;;;;;10.84;100.00;101688.22;5274232;28;20850;-73
2024/03/19 03:48:22;;;;;;;15.85;6.65;;;;;;;10.80;100.00;101692.22;5273410;28;20160;-73
2024/03/19 03:50:52;;;;;;;14.35;6.45;;;;;;;10.78;100.00;101692.34;5272915;28;20032;-73
2024/03/19 03:53:23;;;;;;;16.80;7.38;;;;;;;10.78;100.00;101691.50;5282006;28;20031;-74
2024/03/19 03:55:53;;;;;;;16.13;6.43;;;;;;;10.78;100.00;101694.19;5277200;28;20019;-74
2024/03/19 03:58:24;;;;;;;17.23;7.53;;;;;;;10.79;100.00;101699.44;5273894;28;20389;-73
2024/03/19 04:00:56;;;;;;;16.45;6.80;;;;;;;10.81;100.00;101700.13;5270218;28;20032;-74
2024/03/19 04:03:27;;;;;;;14.15;7.18;;;;;;;10.82;100.00;101699.13;5276604;28;20035;-74
2024/03/19 04:05:57;;;;;;;22.65;7.28;;;;;;;10.80;100.00;101702.97;5276266;28;20390;-73
2024/03/19 04:08:28;;;;;;;12.50;6.82;;;;;;;10.83;100.00;101710.69;5269740;28;20027;-74
2024/03/19 04:10:58;;;;;;;14.05;6.63;;;;;;;10.87;100.00;101706.75;5270295;28;20480;-76
2024/03/19 04:13:29;;;;;;;13.32;6.70;;;;;;;10.89;100.00;101705.63;5270542;28;20158;-74
2024/03/19 04:15:59;;;;;;;19.13;6.82;;;;;;;10.93;100.00;101708.81;5275121;28;20388;-74
2024/03/19 04:18:29;;;;;;;16.15;7.38;;;;;;;10.93;100.00;101711.50;5280165;27;20051;-76
2024/03/19 04:21:00;;;;;;;12.98;6.20;;;;;;;10.91;100.00;101712.66;5275419;28;20028;-76
2024/03/19 04:23:31;;;;;;;13.00;6.32;;;;;;;10.87;100.00;101704.06;5273764;28;20024;-75
2024/03/19 04:26:01;;;;;;;15.32;6.70;;;;;;;10.85;100.00;101711.41;5282732;28;20024;-74
2024/03/19 04:28:32;;;;;;;15.43;6.00;;;;;;;10.85;100.00;101700.69;5275611;28;20035;-76
2024/03/19 04:31:02;;;;;;;13.38;5.80;;;;;;;10.88;100.00;101700.38;5266240;28;20035;-74
2024/03/19 04:33:33;;;;;;;15.48;6.40;;;;;;;10.91;100.00;101709.97;5273940;28;20032;-74
2024/03/19 04:36:04;;;;;;;16.92;5.80;;;;;;;10.92;100.00;101704.47;5272966;28;20053;-76
2024/03/19 04:38:34;;;;;;;13.25;5.75;;;;;;;10.92;100.00;101709.81;5277802;28;20523;-73
2024/03/19 04:41:05;;;;;;;15.15;6.35;;;;;;;10.91;100.00;101709.97;5272787;28;20472;-74
2024/03/19 04:43:35;;;;;;;22.08;6.82;;;;;;;10.88;100.00;101705.75;5275687;28;20039;-76
2024/03/19 04:46:06;;;;;;;12.27;5.68;;;;;;;10.83;100.00;101700.81;5277979;28;20051;-74
2024/03/19 04:48:36;;;;;;;14.15;5.53;;;;;;;10.84;100.00;101707.91;5274824;28;20015;-77
2024/03/19 04:51:07;;;;;;;17.92;6.40;;;;;;;10.87;100.00;101712.09;5270610;28;20035;-75
2024/03/19 04:53:38;;;;;;;15.20;5.57;;;;;;;10.88;100.00;101716.47;5268208;28;20031;-74
2024/03/19 04:56:08;;;;;;;10.93;5.45;;;;;;;10.87;100.00;101707.59;5279002;28;20019;-74
2024/03/19 04:58:39;;;;;;;15.63;5.70;;;;;;;10.89;100.00;101712.78;5275943;28;20023;-74
2024/03/19 05:01:14;;;;;;;17.30;5.90;;;;;;;10.91;100.00;101713.50;5273369;28;20023;-76
2024/03/19 05:03:45;;;;;;;17.48;5.15;;;;;;;10.93;100.00;101711.50;5273599;28;20028;-74
2024/03/19 05:06:16;;;;;;;13.88;5.18;;;;;;;10.95;100.00;101717.59;5279730;28;20401;-74
2024/03/19 05:08:46;;;;;;;17.13;6.72;;;;;;;10.99;100.00;101718.97;5273139;28;20031;-74
2024/03/19 05:11:17;;;;;;;17.45;5.85;;;;;;;10.99;100.00;101713.59;5272453;28;21317;-77
2024/03/19 05:13:47;;;;;;;16.10;5.57;;;;;;;10.97;100.00;101704.84;5270340;28;20034;-74
2024/03/19 05:16:18;;;;;;;13.80;5.30;;;;;;;10.96;100.00;101708.53;5276982;28;20023;-77
2024/03/19 05:18:48;;;;;;;14.18;5.60;;;;;;;10.95;100.00;101712.22;5274835;28;20071;-74
2024/03/19 05:21:19;;;;;;;15.13;5.90;;;;;;;10.88;100.00;101711.94;5268535;28;20031;-74
2024/03/19 05:23:49;;;;;;;17.10;5.60;;;;;;;10.88;100.00;101716.47;5276398;28;20059;-73
2024/03/19 05:26:20;;;;;;;13.70;5.63;;;;;;;10.91;100.00;101710.81;5272795;28;20035;-74
2024/03/19 05:28:50;;;;;;;10.88;5.45;;;;;;;10.96;100.00;101716.59;5273229;28;20048;-74
2024/03/19 05:31:24;;;;;;;11.65;5.25;;;;;;;10.96;100.00;101719.28;5271157;27;20031;-74
2024/03/19 05:33:56;;;;;;;17.38;4.90;;;;;;;11.00;100.00;101717.16;5276645;28;20028;-75
2024/03/19 05:36:26;;;;;;;15.68;5.60;;;;;;;11.00;100.00;101712.63;5269211;28;20021;-75
2024/03/19 05:38:57;;;;;;;16.85;5.65;;;;;;;11.01;100.00;101708.09;5276848;28;20084;-74
2024/03/19 05:41:27;;;;;;;15.70;5.57;;;;;;;11.00;100.00;101718.00;5267469;28;20027;-74
2024/03/19 05:43:58;;;;;;;12.68;5.55;;;;;;;11.02;100.00;101718.69;5274143;28;20031;-74
2024/03/19 05:46:29;;;;;;;13.77;5.13;;;;;;;10.97;100.00;101712.91;5270465;28;20111;-76
2024/03/19 05:48:59;;;;;;;11.95;5.22;;;;;;;10.99;100.00;101723.50;5274941;28;20081;-74
2024/03/19 05:51:31;;;;;;;18.38;5.43;;;;;;;10.99;100.00;101727.03;5271874;28;20039;-74
2024/03/19 05:54:02;;;;;;;14.75;5.97;;;;;;;11.04;100.00;101719.38;5274753;28;20023;-74
2024/03/19 05:56:33;;;;;;;16.65;5.90;;;;;;;10.98;100.00;101711.06;5272192;28;20021;-74
2024/03/19 05:59:03;;;;;;;24.40;6.03;;;;;;;10.99;100.00;101715.44;5265573;28;20024;-74
2024/03/19 06:01:34;;;;;;;14.70;5.18;;;;;;;11.01;100.00;101725.06;5273705;28;20020;-74
2024/03/19 06:04:05;;;;;;;14.32;5.50;;;;;;;11.00;100.00;101727.91;5271763;28;20028;-77
2024/03/19 06:06:35;;;;;;;12.40;5.03;;;;;;;10.98;100.00;101732.56;5272707;28;20032;-74
2024/03/19 06:09:06;;;;;;;12.43;5.45;;;;;;;10.96;100.00;101737.22;5273193;28;20020;-74
2024/03/19 06:11:37;;;;;;;17.17;5.72;;;;;;;10.98;100.00;101737.91;5272562;28;20036;-77
2024/03/19 06:14:07;;;;;;;15.23;5.45;;;;;;;10.82;100.00;101741.22;5277296;28;20023;-74
2024/03/19 06:16:37;;;;;;;11.25;5.00;;;;;;;11.00;100.00;101750.22;5270223;28;20031;-74
2024/03/19 06:19:08;;;;;;;19.75;6.28;;;;;;;10.87;100.00;101741.63;5273704;28;20034;-74
2024/03/19 06:21:38;;;;;;;17.98;5.75;;;;;;;11.05;100.00;101745.25;5266989;28;20481;-74
2024/03/19 06:24:10;;;;;;;16.27;6.85;;;;;;;11.10;100.00;101742.97;5275815;28;20038;-76
2024/03/19 06:26:40;;;;;;;22.45;6.15;;;;;;;11.12;100.00;101735.59;5269478;28;20024;-74
2024/03/19 06:29:11;;;;;;;15.35;4.93;;;;;;;11.14;100.00;101733.63;5271346;28;20027;-78
2024/03/19 06:31:41;;;;;;;15.32;5.65;;;;;;;11.17;100.00;101737.00;5273482;28;20125;-76
2024/03/19 06:34:12;;;;;;;12.48;5.03;;;;;;;11.19;100.00;101735.00;5276643;28;20076;-74
2024/03/19 06:36:42;;;;;;;11.80;5.35;;;;;;;11.22;100.00;101732.03;5274020;28;20024;-77
2024/03/19 06:39:16;;;;;;;17.73;6.03;;;;;;;11.27;100.00;101738.66;5278642;28;20028;-74
2024/03/19 06:41:46;;;;;;;14.63;5.85;;;;;;;11.28;100.00;101732.28;5275188;28;20115;-74
2024/03/19 06:44:17;;;;;;;15.55;6.05;;;;;;;11.30;100.00;101726.78;5276787;28;20114;-74
2024/03/19 06:46:47;;;;;;;20.17;6.50;;;;;;;11.37;100.00;101733.22;5272807;28;20023;-77
2024/03/19 06:49:18;;;;;;;23.52;5.88;;;;;;;11.41;100.00;101740.00;5275339;28;20031;-75
2024/03/19 06:51:50;;;;;;;20.70;6.63;;;;;;;11.47;100.00;101731.31;5270836;28;20047;-74
2024/03/19 06:54:20;;;;;;;20.02;6.20;;;;;;;11.57;100.00;101728.56;5274153;28;20036;-74
2024/03/19 06:56:51;;;;;;;14.20;5.93;;;;;;;11.66;100.00;101731.19;5276976;28;20172;-74
2024/03/19 06:59:24;;;;;;;15.98;5.70;;;;;;;11.79;100.00;101738.03;5271750;28;20052;-74
2024/03/19 07:01:54;;;;;;;22.42;6.30;;;;;;;11.88;100.00;101737.16;5271649;28;20040;-76
2024/03/19 07:04:27;;;;;;;15.23;5.55;;;;;;;11.97;100.00;101735.41;5273825;28;20052;-74
2024/03/19 07:06:58;;;;;;;18.45;5.57;;;;;;;12.09;100.00;101740.38;5277652;28;20536;-77
2024/03/19 07:09:29;;;;;;;17.02;6.35;;;;;;;12.21;100.00;101740.16;5274522;28;20187;-74
2024/03/19 07:11:59;;;;;;;15.95;5.43;;;;;;;12.27;100.00;101739.53;5276930;28;20396;-74
2024/03/19 07:14:30;;;;;;;18.65;6.20;;;;;;;12.34;100.00;101746.81;5276079;28;20028;-77
2024/03/19 07:17:00;;;;;;;17.17;6.13;;;;;;;12.40;100.00;101740.84;5275714;28;20039;-75
2024/03/19 07:19:32;;;;;;;16.48;4.75;;;;;;;12.43;100.00;101743.19;5276718;28;20020;-74
2024/03/19 07:22:04;;;;;;;21.88;5.75;;;;;;;12.48;100.00;101739.19;5274685;28;20031;-79
2024/03/19 07:24:34;;;;;;;18.58;5.00;;;;;;;12.55;100.00;101753.69;5276211;28;20043;-78
2024/03/19 07:27:04;;;;;;;18.02;5.78;;;;;;;12.62;100.00;101750.22;5279087;28;20485;-75
2024/03/19 07:29:35;;;;;;;15.05;4.78;;;;;;;12.70;100.00;101750.28;5272728;28;20035;-74
2024/03/19 07:32:10;;;;;;;20.88;5.65;;;;;;;12.75;100.00;101752.53;5279362;28;20020;-74
2024/03/19 07:34:41;;;;;;;14.32;4.63;;;;;;;12.84;100.00;101761.47;5274061;28;20121;-77
2024/03/19 07:37:12;;;;;;;16.98;4.78;;;;;;;12.88;100.00;101757.47;5278990;28;20498;-75
2024/03/19 07:39:42;;;;;;;24.42;6.13;;;;;;;12.91;100.00;101757.16;5275918;28;20028;-77
2024/03/19 07:42:13;;;;;;;17.40;4.82;;;;;;;12.91;100.00;101755.31;5276076;28;20098;-74
2024/03/19 07:44:44;;;;;;;19.52;5.63;;;;;;;12.96;100.00;101762.91;5277031;28;20032;-74
2024/03/19 07:47:14;;;;;;;13.93;4.65;;;;;;;12.99;100.00;101756.34;5274310;27;20438;-78
2024/03/19 07:49:46;;;;;;;15.95;4.50;;;;;;;13.02;100.00;101764.97;5277295;28;20035;-75
2024/03/19 07:52:17;;;;;;;15.88;5.40;;;;;;;13.05;100.00;101778.13;5275947;28;20055;-77
2024/03/19 07:54:47;;;;;;;17.67;6.32;;;;;;;13.13;100.00;101775.44;5275536;28;20126;-74
2024/03/19 07:57:18;;;;;;;17.40;5.10;;;;;;;13.23;100.00;101778.06;5277101;28;20457;-74
2024/03/19 07:59:52;;;;;;;15.63;4.30;;;;;;;13.36;100.00;101774.94;5271911;28;20053;-74
2024/03/19 08:02:23;;;;;;;14.65;5.43;;;;;;;13.50;100.00;101776.16;5273208;28;20385;-78
2024/03/19 08:04:53;;;;;;;18.00;5.03;;;;;;;13.68;100.00;101782.28;5275806;28;20028;-74
2024/03/19 08:07:24;;;;;;;15.60;4.50;;;;;;;13.82;100.00;101786.22;5273772;28;20031;-74
2024/03/19 08:09:54;;;;;;;15.85;4.90;;;;;;;13.88;100.00;101774.75;5278522;28;20082;-74
2024/03/19 08:12:25;;;;;;;19.48;4.72;;;;;;;14.02;100.00;101790.28;5272713;28;20477;-74
2024/03/19 08:15:00;;;;;;;17.02;4.90;;;;;;;14.22;100.00;101782.72;5277296;28;20030;-75
2024/03/19 08:17:31;;;;;;;;;;;;;;;14.36;100.00;101781.22;5271580;28;20077;-74
2024/03/19 08:20:12;;;;;;;19.08;4.40;;;;;;;14.44;100.00;101782.06;5275281;28;19998;-74
2024/03/19 08:22:43;;;;;;;18.55;4.72;;;;;;;14.52;100.00;101781.25;5273168;28;20112;-75
2024/03/19 08:25:13;;;;;;;16.13;4.55;;;;;;;14.58;100.00;101777.88;5276978;28;20019;-74
2024/03/19 08:27:44;;;;;;;17.10;5.05;;;;;;;14.57;100.00;101770.78;5276676;28;20056;-74
2024/03/19 08:30:14;;;;;;;20.58;5.10;;;;;;;14.67;100.00;101774.16;5273130;28;20033;-74
2024/03/19 08:32:45;;;;;;;15.77;5.20;;;;;;;14.75;100.00;101773.28;5275657;28;20032;-74
2024/03/19 08:35:16;;;;;;;15.60;4.55;;;;;;;14.95;100.00;101776.47;5270027;28;20546;-74
2024/03/19 08:37:47;;;;;;;16.70;4.32;;;;;;;15.15;100.00;101772.34;5273164;28;20507;-74
2024/03/19 08:40:17;;;;;;;13.43;3.92;;;;;;;15.20;100.00;101771.81;5271067;28;20076;-74
2024/03/19 08:42:48;;;;;;;10.80;3.85;;;;;;;15.35;100.00;101771.94;5271163;28;20110;-74
2024/03/19 08:45:23;;;;;;;22.58;4.25;;;;;;;15.65;100.00;101775.72;5273344;28;20030;-75
2024/03/19 08:47:54;;;;;;;13.85;4.28;;;;;;;16.25;100.00;101781.25;5276064;28;20031;-75
2024/03/19 08:50:26;;;;;;;13.40;3.90;;;;;;;16.58;100.00;101778.28;5272755;28;20040;-74
2024/03/19 08:52:56;;;;;;;12.00;3.95;;;;;;;16.93;100.00;101779.50;5272266;28;20546;-74
2024/03/19 08:55:26;;;;;;;15.60;4.25;;;;;;;17.31;100.00;101780.25;5270184;28;20046;-75
2024/03/19 08:57:57;;;;;;;11.00;4.25;;;;;;;17.49;100.00;101779.88;5274337;28;20024;-75
2024/03/19 09:00:27;;;;;;;12.52;4.03;;;;;;;17.90;100.00;101773.06;5272092;28;20035;-75
2024/03/19 09:02:58;;;;;;;12.70;3.97;;;;;;;17.74;100.00;101780.41;5267026;28;20023;-75
2024/03/19 09:05:29;;;;;;;12.20;3.30;;;;;;;17.86;100.00;101780.75;5271601;28;20401;-75
2024/03/19 09:08:00;;;;;;;11.23;3.83;;;;;;;17.92;100.00;101774.53;5272502;28;20621;-75
2024/03/19 09:10:30;;;;;;;11.75;3.50;;;;;;;17.52;100.00;101779.50;5270326;28;20039;-74
2024/03/19 09:13:00;;;;;;;10.10;3.20;;;;;;;17.69;100.00;101777.41;5275354;28;20030;-75
2024/03/19 09:15:31;;;;;;;14.68;3.55;;;;;;;17.96;100.00;101780.44;5268680;28;20068;-76
2024/03/19 09:18:01;;;;;;;12.85;3.20;;;;;;;18.21;100.00;101775.47;5274770;28;20023;-76
2024/03/19 09:20:32;;;;;;;10.90;3.40;;;;;;;17.73;100.00;101777.91;5268076;28;20026;-76
2024/03/19 09:23:03;;;;;;;13.40;3.58;;;;;;;17.54;100.00;101777.44;5270982;28;20030;-75
2024/03/19 09:25:33;;;;;;;10.13;3.45;;;;;;;16.97;100.00;101782.69;5249298;28;20054;-75
2024/03/19 09:28:04;;;;;;;13.80;4.03;;;;;;;16.88;100.00;101775.66;5272021;28;20738;-75
2024/03/19 09:30:34;;;;;;;11.00;3.78;;;;;;;16.51;100.00;101782.75;5269852;28;20443;-75
2024/03/19 09:33:09;;;;;;;17.27;3.83;;;;;;;16.34;100.00;101779.34;5269445;28;20496;-75
2024/03/19 09:35:39;;;;;;;13.45;3.92;;;;;;;16.41;100.00;101774.88;5271429;28;20024;-75
2024/03/19 09:38:10;;;;;;;9.05;3.92;;;;;;;16.70;100.00;101779.53;5269097;28;20024;-75
2024/03/19 09:40:45;;;;;;;14.52;3.53;;;;;;;16.74;100.00;101780.03;5271392;28;20016;-75
2024/03/19 09:43:22;;;;;;;13.25;3.58;;;;;;;17.04;100.00;101783.63;5269196;28;20388;-75
2024/03/19 09:45:52;;;;;;;9.50;4.18;;;;;;;17.44;100.00;101779.59;5271700;28;20664;-75
2024/03/19 09:48:24;;;;;;;9.23;3.42;;;;;;;17.86;100.00;101775.31;5266025;28;20028;-75
2024/03/19 09:50:55;;;;;;;12.73;3.38;;;;;;;18.10;100.00;101758.66;5266832;28;20040;-75
2024/03/19 09:53:28;;;;;;;6.80;3.25;;;;;;;18.66;100.00;101766.03;5269541;28;20046;-75
2024/03/19 09:55:58;;;;;;;8.32;3.20;;;;;;;18.90;100.00;101759.34;5271980;28;20439;-75
2024/03/19 09:58:30;;;;;;;9.15;3.10;;;;;;;18.86;100.00;101761.63;5270963;28;20028;-75
2024/03/19 10:01:02;;;;;;;11.23;3.67;;;;;;;18.96;100.00;101758.56;5268704;28;20445;-75
2024/03/19 10:03:33;;;;;;;7.55;3.20;;;;;;;18.96;100.00;101766.72;5267003;28;20016;-75
2024/03/19 10:06:05;;;;;;;12.55;3.30;;;;;;;19.04;100.00;101760.28;5277289;28;20027;-75
2024/03/19 10:08:42;;;;;;;13.27;3.30;;;;;;;19.00;100.00;101759.00;5273465;28;20484;-75
2024/03/19 10:11:13;;;;;;;9.88;2.90;;;;;;;19.30;100.00;101759.59;5262179;28;20040;-75
2024/03/19 10:13:44;;;;;;;9.50;3.58;;;;;;;19.00;100.00;101750.84;5270957;28;20020;-75
2024/03/19 10:16:14;;;;;;;18.38;3.25;;;;;;;19.35;100.00;101738.91;5251715;28;20020;-76
2024/03/19 10:18:45;;;;;;;13.38;3.80;;;;;;;19.00;100.00;101746.25;5270592;28;20138;-76
2024/03/19 10:21:15;;;;;;;13.52;3.13;;;;;;;18.80;100.00;101751.56;5266632;28;20063;-76
2024/03/19 10:23:46;;;;;;;8.77;3.10;;;;;;;18.63;100.00;101751.00;5273698;28;20031;-77
2024/03/19 10:26:16;;;;;;;8.20;3.10;;;;;;;18.67;100.00;101750.56;5265217;28;20081;-76
2024/03/19 10:28:47;;;;;;;12.93;3.35;;;;;;;18.77;100.00;101742.94;5267740;28;20020;-76
2024/03/19 10:31:18;;;;;;;9.32;3.17;;;;;;;18.93;100.00;101747.25;5265384;28;20036;-76
2024/03/19 10:33:48;;;;;;;15.60;3.95;;;;;;;19.16;100.00;101742.34;5267041;28;20028;-76
2024/03/19 10:36:23;;;;;;;9.30;3.40;;;;;;;19.16;100.00;101745.06;5246727;28;20036;-77
2024/03/19 10:38:54;;;;;;;;;;;;;;;19.31;100.00;101731.34;5269572;28;20031;-77
2024/03/19 10:41:28;;;;;;;11.15;3.40;;;;;;;19.22;100.00;101738.81;5265791;28;20114;-77
2024/03/19 10:44:00;;;;;;;8.55;2.78;;;;;;;19.52;100.00;101727.66;5266075;28;20493;-77
2024/03/19 10:46:33;;;;;;;14.13;3.35;;;;;;;19.12;100.00;101731.03;5267361;28;20023;-77
2024/03/19 10:49:03;;;;;;;12.48;3.58;;;;;;;19.01;100.00;101725.31;5265556;28;20103;-77
2024/03/19 10:51:34;;;;;;;13.70;3.17;;;;;;;19.13;100.00;101719.13;5269860;28;20063;-76
2024/03/19 10:54:06;;;;;;;12.30;3.08;;;;;;;19.33;100.00;101721.09;5267561;28;20031;-77
2024/03/19 10:56:37;;;;;;;10.40;2.97;;;;;;;19.32;100.00;101722.13;5268163;28;20020;-76
2024/03/19 10:59:15;;;;;;;13.02;3.45;;;;;;;19.50;100.00;101732.47;5266921;28;20039;-76
2024/03/19 11:01:48;;;;;;;10.95;3.13;;;;;;;19.56;100.00;101727.03;5266199;28;20032;-76
2024/03/19 11:04:26;;;;;;;8.50;2.92;;;;;;;19.61;100.00;101718.28;5267709;28;20122;-77
2024/03/19 11:06:58;;;;;;;11.00;2.65;;;;;;;19.84;100.00;101712.50;5267443;28;20027;-77
2024/03/19 11:09:30;;;;;;;9.85;3.38;;;;;;;19.56;100.00;101718.03;5265960;28;20351;-77
2024/03/19 11:12:02;;;;;;;8.48;2.85;;;;;;;19.74;100.00;101718.34;5266492;28;20044;-76
2024/03/19 11:14:33;;;;;;;12.95;3.17;;;;;;;19.94;100.00;101712.09;5264865;28;20020;-77
2024/03/19 11:17:15;;;;;;;6.93;2.88;;;;;;;20.17;100.00;101709.81;5266586;28;20035;-76
2024/03/19 11:19:54;;;;;;;7.68;2.50;;;;;;;20.47;100.00;101715.69;5270740;28;20039;-77
2024/03/19 11:22:25;;;;;;;12.82;2.45;;;;;;;20.55;100.00;101725.56;5248374;28;20024;-77
2024/03/19 11:24:56;;;;;;;19.13;2.80;;;;;;;20.44;100.00;101721.56;5268817;28;20088;-77
2024/03/19 11:27:33;;;;;;;6.15;2.10;;;;;;;20.56;100.00;101719.06;5270137;28;20591;-77